Time;durP1;ratioP1;P1;durP2;ratioP2;P2;SDS_P1;SDS_P2;PMS_P1;PMS_P2;Temp;Humidity;BMP_temperature;BMP_pressure;BME280_temperature;BME280_humidity;BME280_pressure;Samples;Min_cycle;Max_cycle;Signal;HPM_P1;HPM_P2
2023/02/12 00:01:19;;;;;;;69.40;27.17;;;2.50;99.90;;;;;;4404428;28;658156;-71
2023/02/12 00:04:07;;;;;;;70.83;26.70;;;2.60;99.90;;;;;;4385405;28;658055;-71
2023/02/12 00:06:54;;;;;;;68.97;27.40;;;2.70;99.90;;;;;;4402942;28;657478;-71
2023/02/12 00:09:41;;;;;;;67.33;26.77;;;2.70;99.90;;;;;;4383819;28;657614;-72
2023/02/12 00:12:30;;;;;;;54.67;21.70;;;2.80;99.90;;;;;;4407370;28;658291;-71
2023/02/12 00:15:17;;;;;;;63.00;24.00;;;2.80;99.90;;;;;;4386322;28;658634;-72
2023/02/12 00:18:05;;;;;;;60.23;23.57;;;2.90;99.90;;;;;;4405759;28;658256;-71
2023/02/12 00:20:52;;;;;;;67.60;25.40;;;2.90;99.90;;;;;;4374123;28;658664;-71
2023/02/12 00:23:40;;;;;;;68.73;24.43;;;2.90;99.90;;;;;;4403296;28;657649;-71
2023/02/12 00:26:27;;;;;;;67.13;23.50;;;3.00;99.90;;;;;;4387599;28;658933;-71
2023/02/12 00:29:15;;;;;;;64.23;22.93;;;3.00;99.90;;;;;;4405390;28;657575;-71
2023/02/12 00:32:03;;;;;;;64.83;23.10;;;3.00;99.90;;;;;;4368301;28;658843;-72
2023/02/12 00:34:50;;;;;;;55.47;22.10;;;3.00;99.90;;;;;;4384467;28;657403;-72
2023/02/12 00:37:37;;;;;;;64.10;24.33;;;3.10;99.90;;;;;;4401520;28;658469;-70
2023/02/12 00:40:25;;;;;;;76.97;25.83;;;3.00;99.90;;;;;;4401735;28;657505;-71
2023/02/12 00:43:12;;;;;;;63.37;24.23;;;3.10;99.90;;;;;;4407062;28;657582;-72
2023/02/12 00:46:02;;;;;;;53.07;21.73;;;3.10;99.90;;;;;;4392417;28;657638;-71
2023/02/12 00:48:49;;;;;;;67.33;22.03;;;3.10;99.90;;;;;;4403147;28;657664;-72
2023/02/12 00:51:36;;;;;;;55.03;22.07;;;3.10;99.90;;;;;;4385646;28;657555;-71
2023/02/12 00:54:23;;;;;;;61.30;23.07;;;3.10;99.90;;;;;;4400903;28;658942;-71
2023/02/12 00:57:10;;;;;;;58.87;22.50;;;3.10;99.90;;;;;;4383870;28;657482;-72
2023/02/12 00:59:58;;;;;;;57.87;22.53;;;3.10;99.90;;;;;;4401205;28;658529;-72
2023/02/12 01:02:47;;;;;;;53.78;20.80;;;3.10;99.90;;;;;;4379414;28;657885;-73
2023/02/12 01:05:34;;;;;;;59.60;21.63;;;3.10;99.90;;;;;;4403560;28;657157;-72
2023/02/12 01:08:21;;;;;;;54.90;22.23;;;3.10;99.90;;;;;;4390956;28;658451;-72
2023/02/12 01:11:11;;;;;;;56.47;21.90;;;3.10;99.90;;;;;;4400013;28;658922;-72
2023/02/12 01:13:59;;;;;;;52.43;22.27;;;3.10;99.90;;;;;;4385153;28;657715;-72
2023/02/12 01:16:46;;;;;;;57.00;21.27;;;3.10;99.90;;;;;;4383344;28;657492;-72
2023/02/12 01:19:34;;;;;;;63.97;23.43;;;3.00;99.90;;;;;;4408274;28;658359;-72
2023/02/12 01:22:22;;;;;;;63.33;23.00;;;3.10;99.90;;;;;;4380625;28;657760;-72
2023/02/12 01:25:09;;;;;;;57.90;22.73;;;3.10;99.90;;;;;;4400972;28;657568;-72
2023/02/12 01:27:57;;;;;;;60.53;21.33;;;3.10;99.90;;;;;;4377316;28;657636;-71
2023/02/12 01:30:44;;;;;;;57.37;21.77;;;3.10;99.90;;;;;;4404375;28;657359;-71
2023/02/12 01:33:31;;;;;;;60.13;21.83;;;3.10;99.90;;;;;;4378673;28;658075;-73
2023/02/12 01:36:20;;;;;;;53.37;21.63;;;3.10;99.90;;;;;;4408446;28;658338;-72
2023/02/12 01:39:07;;;;;;;56.83;22.30;;;3.10;99.90;;;;;;4378009;28;658218;-73
2023/02/12 01:41:54;;;;;;;58.73;20.87;;;3.10;99.90;;;;;;4408824;28;657218;-72
2023/02/12 01:44:44;;;;;;;68.47;24.00;;;3.10;99.90;;;;;;4378652;28;657914;-72
2023/02/12 01:47:31;;;;;;;55.43;20.17;;;3.10;99.90;;;;;;4385085;28;658254;-72
2023/02/12 01:50:19;;;;;;;61.60;23.87;;;3.10;99.90;;;;;;4408784;28;657191;-72
2023/02/12 01:53:07;;;;;;;54.40;22.10;;;3.10;99.90;;;;;;4387556;28;657360;-72
2023/02/12 01:55:57;;;;;;;54.13;22.97;;;3.10;99.90;;;;;;4402041;28;657821;-71
2023/02/12 01:58:45;;;;;;;61.20;22.60;;;3.20;99.90;;;;;;4411399;28;658061;-72
2023/02/12 02:01:32;;;;;;;57.53;22.90;;;3.10;99.90;;;;;;4380759;28;657899;-72
2023/02/12 02:04:21;;;;;;;56.07;22.47;;;3.10;99.90;;;;;;4406065;28;657214;-71
2023/02/12 02:07:08;;;;;;;53.23;22.70;;;3.10;99.90;;;;;;4370752;28;658573;-71
2023/02/12 02:09:57;;;;;;;57.20;21.23;;;3.10;99.90;;;;;;4385041;28;657367;-72
2023/02/12 02:15:50;;;;;;;61.53;21.60;;;3.20;99.90;;;;;;4381704;28;658284;-72
2023/02/12 02:18:40;;;;;;;109.17;24.97;;;3.10;99.90;;;;;;4382096;28;658101;-72
2023/02/12 02:21:46;;;;;;;51.60;21.13;;;3.10;99.90;;;;;;4386047;28;659761;-72
2023/02/12 02:25:24;;;;;;;55.20;22.13;;;3.10;99.90;;;;;;4384124;28;658298;-72
2023/02/12 02:28:22;;;;;;;66.63;23.37;;;3.20;99.90;;;;;;4305116;28;657789;-72
2023/02/12 02:31:12;;;;;;;59.77;20.70;;;3.10;99.90;;;;;;4399900;28;657521;-72
2023/02/12 02:34:03;;;;;;;62.10;24.07;;;3.20;99.90;;;;;;4410571;28;657720;-72
2023/02/12 02:36:53;;;;;;;57.63;22.73;;;3.10;99.90;;;;;;4374554;28;657394;-72
2023/02/12 02:39:43;;;;;;;50.67;21.33;;;3.10;99.90;;;;;;4387059;28;657559;-72
2023/02/12 02:42:33;;;;;;;61.17;21.33;;;3.10;99.90;;;;;;4382638;28;658741;-72
2023/02/12 02:45:22;;;;;;;56.42;23.13;;;3.10;99.90;;;;;;4387440;28;657695;-72
2023/02/12 02:48:13;;;;;;;54.57;21.13;;;3.10;99.90;;;;;;4411281;28;657221;-72
2023/02/12 02:51:03;;;;;;;60.67;21.30;;;3.10;99.90;;;;;;4362337;28;658212;-72
2023/02/12 02:53:53;;;;;;;51.03;21.23;;;3.10;99.90;;;;;;4387523;28;657387;-72
2023/02/12 02:56:42;;;;;;;48.95;20.02;;;3.10;99.90;;;;;;4384321;28;657437;-72
2023/02/12 02:59:33;;;;;;;44.77;20.53;;;3.10;99.90;;;;;;4410253;28;657730;-72
2023/02/12 03:02:21;;;;;;;47.70;19.20;;;3.10;99.90;;;;;;4371603;28;658353;-72
2023/02/12 03:05:13;;;;;;;44.25;18.85;;;3.20;99.90;;;;;;4407837;28;658967;-71
2023/02/12 03:08:03;;;;;;;48.07;19.50;;;3.10;99.90;;;;;;4359234;28;658363;-72
2023/02/12 03:10:52;;;;;;;44.60;18.10;;;3.10;99.90;;;;;;4392034;28;657457;-73
2023/02/12 03:13:42;;;;;;;47.33;19.00;;;3.10;99.90;;;;;;4404839;28;656980;-72
2023/02/12 03:16:30;;;;;;;38.67;17.63;;;3.10;99.90;;;;;;4381915;28;658847;-72
2023/02/12 03:19:19;;;;;;;44.23;18.07;;;3.10;99.90;;;;;;4384819;28;658114;-72
2023/02/12 03:22:09;;;;;;;38.60;16.73;;;3.20;99.90;;;;;;4386538;28;657771;-72
2023/02/12 03:24:58;;;;;;;42.37;17.23;;;3.20;99.90;;;;;;4386827;28;657511;-72
2023/02/12 03:27:46;;;;;;;48.50;17.63;;;3.10;99.90;;;;;;4381122;28;657407;-72
2023/02/12 03:30:39;;;;;;;41.77;17.17;;;3.10;99.90;;;;;;4401764;28;657643;-72
2023/02/12 03:33:30;;;;;;;41.77;17.33;;;3.10;99.90;;;;;;4387754;28;658054;-71
2023/02/12 03:36:23;;;;;;;41.57;16.57;;;3.10;99.90;;;;;;4386667;28;657805;-72
2023/02/12 03:39:15;;;;;;;47.93;16.70;;;3.00;99.90;;;;;;4374390;28;657697;-72
2023/02/12 03:42:04;;;;;;;41.90;16.50;;;3.10;99.90;;;;;;4376833;28;658733;-72
2023/02/12 03:44:53;;;;;;;43.67;16.03;;;3.10;99.90;;;;;;4386479;28;657431;-72
2023/02/12 03:47:44;;;;;;;44.22;17.00;;;3.10;99.90;;;;;;4388866;28;657630;-72
2023/02/12 03:50:35;;;;;;;48.80;17.37;;;3.00;99.90;;;;;;4389262;28;657561;-72
2023/02/12 03:53:23;;;;;;;43.70;16.50;;;3.00;99.90;;;;;;4386490;28;657512;-72
2023/02/12 03:56:13;;;;;;;44.13;16.50;;;3.00;99.90;;;;;;4382512;28;657642;-71
2023/02/12 03:59:00;;;;;;;31.10;15.13;;;3.00;99.90;;;;;;4382715;28;657685;-72
2023/02/12 04:01:48;;;;;;;37.90;15.87;;;3.00;99.90;;;;;;4396461;28;658842;-72
2023/02/12 04:04:35;;;;;;;39.83;16.10;;;2.90;99.90;;;;;;4390326;28;657553;-72
2023/02/12 04:07:22;;;;;;;35.13;14.10;;;2.90;99.90;;;;;;4409744;28;658040;-72
2023/02/12 04:10:11;;;;;;;37.70;14.87;;;2.90;99.90;;;;;;4408755;28;657690;-71
2023/02/12 04:13:02;;;;;;;42.43;15.03;;;2.90;99.90;;;;;;4410492;28;658092;-71
2023/02/12 04:16:02;;;;;;;35.13;15.17;;;2.90;99.90;;;;;;4387861;28;657656;-72
2023/02/12 04:18:49;;;;;;;38.90;15.13;;;2.80;99.90;;;;;;4378153;28;657678;-72
2023/02/12 04:21:43;;;;;;;41.70;14.37;;;2.80;99.90;;;;;;4378333;28;657665;-71
2023/02/12 04:24:36;;;;;;;32.53;15.03;;;2.80;99.90;;;;;;4380862;28;658563;-72
2023/02/12 04:27:25;;;;;;;34.33;14.97;;;2.70;99.90;;;;;;4383889;28;659003;-71
2023/02/12 04:30:18;;;;;;;41.43;15.07;;;2.70;99.90;;;;;;4379701;28;657721;-71
2023/02/12 04:33:06;;;;;;;39.30;14.90;;;2.70;99.90;;;;;;4373910;28;657573;-72
2023/02/12 04:35:56;;;;;;;40.10;16.33;;;2.60;99.90;;;;;;4406107;28;658647;-72
2023/02/12 04:38:46;;;;;;;48.23;15.23;;;2.60;99.90;;;;;;4385114;28;658301;-72
2023/02/12 04:41:33;;;;;;;37.50;16.53;;;2.60;99.90;;;;;;4384553;28;659045;-71
2023/02/12 04:44:23;;;;;;;38.97;15.23;;;2.60;99.90;;;;;;4387049;28;657625;-72
2023/02/12 04:47:12;;;;;;;40.30;15.93;;;2.60;99.90;;;;;;4378917;28;657495;-72
2023/02/12 04:49:59;;;;;;;43.95;17.10;;;2.70;99.90;;;;;;4403194;28;657888;-71
2023/02/12 04:52:46;;;;;;;40.63;15.93;;;2.70;99.90;;;;;;4378941;28;657805;-72
2023/02/12 04:55:34;;;;;;;46.50;16.47;;;2.60;99.90;;;;;;4402993;28;657140;-71
2023/02/12 04:58:21;;;;;;;37.17;15.63;;;2.70;99.90;;;;;;4382506;28;658713;-72
2023/02/12 05:01:09;;;;;;;38.20;16.77;;;2.60;99.90;;;;;;4399479;28;658895;-72
2023/02/12 05:03:57;;;;;;;37.97;16.43;;;2.60;99.90;;;;;;4382924;28;657664;-72
2023/02/12 05:06:45;;;;;;;36.83;15.67;;;2.60;99.90;;;;;;4404600;28;657024;-72
2023/02/12 05:09:32;;;;;;;58.03;19.80;;;2.50;99.90;;;;;;4377989;28;657824;-72
2023/02/12 05:12:19;;;;;;;97.40;27.80;;;2.50;99.90;;;;;;4408570;28;657688;-72
2023/02/12 05:15:08;;;;;;;87.20;28.73;;;2.50;99.90;;;;;;4364486;28;657768;-72
2023/02/12 05:17:55;;;;;;;67.30;24.07;;;2.50;99.90;;;;;;4390964;28;657753;-73
2023/02/12 05:20:44;;;;;;;55.47;19.77;;;2.50;99.90;;;;;;4410113;28;657731;-72
2023/02/12 05:23:32;;;;;;;69.17;21.50;;;2.50;99.90;;;;;;4389560;28;658317;-72
2023/02/12 05:26:20;;;;;;;53.80;16.23;;;2.50;99.90;;;;;;4402958;28;656913;-72
2023/02/12 05:29:08;;;;;;;61.67;23.00;;;2.50;99.90;;;;;;4375034;28;658977;-71
2023/02/12 05:31:55;;;;;;;76.73;28.43;;;2.40;99.90;;;;;;4400815;28;657896;-72
2023/02/12 05:34:42;;;;;;;31.10;12.77;;;2.40;99.90;;;;;;4412036;28;658422;-72
2023/02/12 05:37:33;;;;;;;33.93;12.67;;;2.40;99.90;;;;;;4408688;28;658526;-72
2023/02/12 05:40:21;;;;;;;34.07;12.93;;;2.30;99.90;;;;;;4393790;28;658083;-72
2023/02/12 05:43:08;;;;;;;22.43;9.77;;;2.30;99.90;;;;;;4407587;28;658725;-72
2023/02/12 05:45:58;;;;;;;29.53;11.27;;;2.20;99.90;;;;;;4391108;28;656754;-72
2023/02/12 05:48:45;;;;;;;25.43;10.63;;;2.20;99.90;;;;;;4399535;28;657789;-73
2023/02/12 05:51:33;;;;;;;32.50;12.37;;;2.20;99.90;;;;;;4408100;28;657996;-72
2023/02/12 05:54:22;;;;;;;31.37;8.93;;;2.10;99.90;;;;;;4395461;28;658132;-72
2023/02/12 05:57:09;;;;;;;21.60;8.57;;;2.00;99.90;;;;;;4407837;28;656563;-72
2023/02/12 05:59:56;;;;;;;26.27;9.23;;;1.90;99.90;;;;;;4372882;28;656471;-72
2023/02/12 06:02:43;;;;;;;24.23;9.50;;;1.80;99.90;;;;;;4407817;28;656655;-73
2023/02/12 06:05:31;;;;;;;33.43;10.43;;;1.80;99.90;;;;;;4388028;28;656918;-72
2023/02/12 06:08:18;;;;;;;36.90;11.17;;;1.80;99.90;;;;;;4411064;28;658536;-73
2023/02/12 06:11:08;;;;;;;27.33;10.43;;;1.70;99.90;;;;;;4389365;28;658393;-73
2023/02/12 06:13:55;;;;;;;43.47;14.17;;;1.60;99.90;;;;;;4387780;28;657427;-73
2023/02/12 06:16:44;;;;;;;44.77;15.97;;;1.50;99.90;;;;;;4403505;28;658867;-72
2023/02/12 06:19:31;;;;;;;36.67;14.43;;;1.40;99.90;;;;;;4387923;28;659069;-72
2023/02/12 06:22:19;;;;;;;55.80;17.77;;;1.40;99.90;;;;;;4402750;28;657930;-72
2023/02/12 06:25:07;;;;;;;27.90;11.90;;;1.30;99.90;;;;;;4389164;28;657306;-73
2023/02/12 06:27:55;;;;;;;33.57;11.90;;;1.30;99.90;;;;;;4409311;28;657062;-73
2023/02/12 06:30:42;;;;;;;30.17;10.63;;;1.20;99.90;;;;;;4385216;28;658605;-73
2023/02/12 06:33:31;;;;;;;30.17;11.50;;;1.20;99.90;;;;;;4398078;28;658067;-72
2023/02/12 06:36:18;;;;;;;32.43;10.17;;;1.20;99.90;;;;;;4406468;28;658611;-72
2023/02/12 06:39:05;;;;;;;28.47;10.83;;;1.20;99.90;;;;;;4382380;28;657412;-73
2023/02/12 06:41:53;;;;;;;30.93;10.87;;;1.20;99.90;;;;;;4406836;28;658147;-72
2023/02/12 06:44:42;;;;;;;27.37;10.63;;;1.20;99.90;;;;;;4390525;28;657844;-72
2023/02/12 06:47:29;;;;;;;25.53;9.70;;;1.20;99.90;;;;;;4410447;28;657841;-72
2023/02/12 06:50:16;;;;;;;28.10;10.80;;;1.20;99.90;;;;;;4376812;28;656682;-73
2023/02/12 06:53:04;;;;;;;25.50;10.27;;;1.30;99.90;;;;;;4392840;28;657463;-73
2023/02/12 06:55:51;;;;;;;31.50;10.93;;;1.30;99.90;;;;;;4387394;28;657225;-74
2023/02/12 06:58:38;;;;;;;29.37;11.70;;;1.30;99.90;;;;;;4413511;28;657666;-73
2023/02/12 07:01:28;;;;;;;25.13;10.23;;;1.40;99.90;;;;;;4393117;28;657680;-73
2023/02/12 07:04:15;;;;;;;43.13;13.43;;;1.40;99.90;;;;;;4394699;28;657435;-73
2023/02/12 07:07:03;;;;;;;38.53;13.53;;;1.50;99.90;;;;;;4410749;28;657817;-73
2023/02/12 07:09:51;;;;;;;34.97;11.10;;;1.50;99.90;;;;;;4381941;28;657661;-73
2023/02/12 07:12:38;;;;;;;28.40;10.63;;;1.60;99.90;;;;;;4412458;28;658925;-73
2023/02/12 07:15:25;;;;;;;24.17;8.70;;;1.60;99.90;;;;;;4388715;28;657759;-73
2023/02/12 07:18:14;;;;;;;21.97;8.30;;;1.60;99.90;;;;;;4412786;28;656978;-73
2023/02/12 07:21:01;;;;;;;17.90;6.63;;;1.70;99.90;;;;;;4383925;28;656366;-73
2023/02/12 07:23:48;;;;;;;18.43;6.43;;;1.70;99.90;;;;;;4406737;28;657711;-72
2023/02/12 07:26:36;;;;;;;17.93;6.40;;;1.70;99.90;;;;;;4386853;28;656553;-73
2023/02/12 07:29:23;;;;;;;18.23;6.23;;;1.70;99.90;;;;;;4411703;28;658594;-73
2023/02/12 07:32:10;;;;;;;18.17;6.47;;;1.70;99.90;;;;;;4387794;28;657360;-72
2023/02/12 07:34:59;;;;;;;16.07;6.80;;;1.80;99.90;;;;;;4409756;28;657437;-72
2023/02/12 07:37:46;;;;;;;18.13;5.30;;;1.80;99.90;;;;;;4385188;28;656356;-72
2023/02/12 07:40:34;;;;;;;14.17;5.97;;;1.80;99.90;;;;;;4406107;28;657187;-72
2023/02/12 07:43:21;;;;;;;17.30;5.80;;;1.90;99.90;;;;;;4379603;28;656665;-73
2023/02/12 07:46:09;;;;;;;19.60;5.93;;;2.10;99.90;;;;;;4410558;28;657412;-72
2023/02/12 07:48:57;;;;;;;16.47;6.50;;;2.20;99.90;;;;;;4374499;28;656739;-73
2023/02/12 07:51:45;;;;;;;19.30;7.40;;;2.30;99.90;;;;;;4396328;28;657136;-73
2023/02/12 07:54:33;;;;;;;19.23;6.90;;;2.40;99.90;;;;;;4372681;28;657866;-73
2023/02/12 07:57:20;;;;;;;20.23;7.53;;;2.40;99.90;;;;;;4383399;28;660159;-72
2023/02/12 08:00:09;;;;;;;18.03;7.00;;;2.60;99.90;;;;;;4404620;28;657418;-71
2023/02/12 08:02:56;;;;;;;17.17;6.93;;;2.70;1.00;;;;;;4386775;28;656888;-72
2023/02/12 08:05:43;;;;;;;20.20;7.47;;;2.90;1.00;;;;;;4406359;28;656674;-72
2023/02/12 08:08:32;;;;;;;23.57;8.07;;;3.20;72.80;;;;;;4390464;28;655723;-72
2023/02/12 08:11:19;;;;;;;22.13;6.60;;;3.50;99.90;;;;;;4399577;28;656317;-73
2023/02/12 08:14:06;;;;;;;14.40;6.20;;;3.70;99.90;;;;;;4382069;28;656235;-72
2023/02/12 08:16:54;;;;;;;18.20;5.90;;;3.90;70.80;;;;;;4399604;28;657140;-74
2023/02/12 08:19:41;;;;;;;16.50;6.13;;;4.00;1.00;;;;;;4387941;28;656451;-70
2023/02/12 08:22:28;;;;;;;16.87;6.03;;;4.50;99.90;;;;;;4402951;28;654936;-72
2023/02/12 08:25:17;;;;;;;15.40;6.07;;;4.70;99.90;;;;;;4388090;28;656473;-74
2023/02/12 08:28:05;;;;;;;18.67;6.80;;;5.20;1.00;;;;;;4403897;28;656471;-73
2023/02/12 08:30:52;;;;;;;13.53;6.10;;;5.30;99.90;;;;;;4381646;28;657259;-72
2023/02/12 08:33:39;;;;;;;13.47;5.70;;;5.30;1.00;;;;;;4404082;28;656615;-73
2023/02/12 08:36:27;;;;;;;18.07;6.87;;;5.60;99.90;;;;;;4390969;28;655528;-71
2023/02/12 08:39:15;;;;;;;13.17;5.90;;;5.50;98.40;;;;;;4394873;28;656435;-73
2023/02/12 08:42:04;;;;;;;12.77;5.53;;;5.40;80.10;;;;;;4381683;28;657447;-72
2023/02/12 08:44:51;;;;;;;12.20;6.07;;;5.50;66.00;;;;;;4381350;28;656440;-73
2023/02/12 08:47:39;;;;;;;10.73;4.93;;;5.80;76.80;;;;;;4407138;28;656891;-72
2023/02/12 08:50:26;;;;;;;8.30;4.23;;;6.10;18.60;;;;;;4387409;28;656859;-72
2023/02/12 08:53:13;;;;;;;8.43;4.43;;;6.50;1.00;;;;;;4405029;28;656166;-71
2023/02/12 08:56:00;;;;;;;6.87;4.17;;;6.10;1.00;;;;;;4382435;28;654282;-71
2023/02/12 08:58:49;;;;;;;7.90;4.00;;;4.60;1.00;;;;;;4405516;28;655503;-71
2023/02/12 09:01:39;;;;;;;8.83;4.10;;;4.70;1.00;;;;;;4385237;28;655158;-71
2023/02/12 09:04:28;;;;;;;12.13;4.13;;;4.60;1.00;;;;;;4385322;28;654569;-71
2023/02/12 09:07:15;;;;;;;8.23;4.13;;;4.60;1.00;;;;;;4391571;28;655341;-71
2023/02/12 09:10:02;;;;;;;9.13;4.20;;;4.60;1.00;;;;;;4410038;28;655623;-71
2023/02/12 09:12:50;;;;;;;11.97;4.93;;;5.00;1.00;;;;;;4398474;28;654709;-72
2023/02/12 09:15:39;;;;;;;13.17;5.73;;;5.30;1.00;;;;;;4415049;28;656536;-72
2023/02/12 09:18:26;;;;;;;9.40;5.13;;;6.00;1.00;;;;;;4391238;28;655139;-71
2023/02/12 09:21:15;;;;;;;10.00;5.23;;;6.30;1.00;;;;;;4403769;28;655085;-72
2023/02/12 09:24:03;;;;;;;9.32;4.72;;;6.00;1.00;;;;;;4376336;28;655960;-71
2023/02/12 09:26:50;;;;;;;7.67;4.10;;;5.20;1.00;;;;;;4397129;28;654265;-71
2023/02/12 09:29:38;;;;;;;11.40;4.43;;;5.40;1.00;;;;;;4411384;28;654954;-71
2023/02/12 09:32:27;;;;;;;10.70;4.67;;;5.30;1.00;;;;;;4397667;28;655859;-71
2023/02/12 09:35:14;;;;;;;11.33;5.13;;;5.00;1.00;;;;;;4408032;28;655158;-71
2023/02/12 09:38:01;;;;;;;11.33;5.20;;;5.00;1.00;;;;;;4388143;28;655360;-71
2023/02/12 09:40:51;;;;;;;10.67;4.70;;;4.90;1.00;;;;;;4403268;28;656807;-71
2023/02/12 09:43:41;;;;;;;10.53;5.03;;;5.00;1.00;;;;;;4384853;28;656654;-71
2023/02/12 09:46:30;;;;;;;13.27;5.03;;;4.90;1.00;;;;;;4382299;28;656509;-71
2023/02/12 09:49:25;;;;;;;9.70;4.53;;;4.60;1.00;;;;;;4381489;28;655440;-71
2023/02/12 09:52:14;;;;;;;11.03;5.43;;;4.10;1.00;;;;;;4382585;28;654326;-71
2023/02/12 09:55:02;;;;;;;12.13;4.63;;;4.50;1.00;;;;;;4386139;28;655177;-70
2023/02/12 09:57:49;;;;;;;9.17;4.40;;;5.20;1.00;;;;;;4403694;28;655398;-71
2023/02/12 10:00:36;;;;;;;8.30;4.70;;;5.90;1.00;;;;;;4386873;28;655461;-72
2023/02/12 10:03:30;;;;;;;13.00;5.00;;;6.50;1.00;;;;;;4408737;28;654991;-71
2023/02/12 10:06:20;;;;;;;16.10;5.53;;;5.40;1.00;;;;;;4376402;28;655232;-71
2023/02/12 10:09:25;;;;;;;8.43;4.90;;;5.80;1.00;;;;;;4388666;28;656699;-71
2023/02/12 10:12:15;;;;;;;6.57;3.47;;;6.20;1.00;;;;;;4388780;28;654510;-72
2023/02/12 10:15:14;;;;;;;7.68;3.47;;;5.80;1.00;;;;;;4391136;28;654432;-71
2023/02/12 10:18:16;;;;;;;5.97;3.70;;;5.10;1.00;;;;;;4390986;28;654497;-71
2023/02/12 10:21:07;;;;;;;7.03;3.67;;;4.00;1.00;;;;;;4382915;28;654762;-71
2023/02/12 10:24:02;;;;;;;4.80;3.20;;;4.90;1.00;;;;;;4387612;28;654782;-71
2023/02/12 10:26:50;;;;;;;9.63;3.17;;;6.30;1.00;;;;;;4389305;28;654621;-72
2023/02/12 10:29:38;;;;;;;6.87;4.10;;;7.40;1.00;;;;;;4390077;28;655291;-71
2023/02/12 10:32:27;;;;;;;6.63;3.57;;;8.20;1.00;;;;;;4386333;28;654335;-71
2023/02/12 10:35:15;;;;;;;5.88;4.07;;;8.90;1.00;;;;;;4413638;28;653545;-71
2023/02/12 10:38:04;;;;;;;6.47;4.20;;;9.50;1.00;;;;;;4385970;28;655642;-71
2023/02/12 10:40:56;;;;;;;16.05;6.07;;;10.30;1.00;;;;;;4386369;28;655091;-72
2023/02/12 10:43:43;;;;;;;10.93;4.90;;;11.10;1.00;;;;;;4389043;28;658087;-71
2023/02/12 10:46:31;;;;;;;7.83;4.53;;;10.70;1.00;;;;;;4388029;28;656519;-71
2023/02/12 10:49:18;;;;;;;11.47;5.70;;;9.80;1.00;;;;;;4412464;28;656506;-71
2023/02/12 10:52:10;;;;;;;14.93;6.00;;;9.70;1.00;;;;;;4394376;28;655768;-71
2023/02/12 10:54:58;;;;;;;9.83;5.33;;;10.10;1.00;;;;;;4392550;28;656161;-71
2023/02/12 10:57:47;;;;;;;8.10;5.30;;;10.70;1.00;;;;;;4400537;28;656013;-71
2023/02/12 11:00:35;;;;;;;7.97;4.50;;;11.20;1.00;;;;;;4399020;28;655462;-71
2023/02/12 11:03:22;;;;;;;11.20;4.90;;;12.10;1.00;;;;;;4390943;28;656120;-71
2023/02/12 11:06:14;;;;;;;6.80;4.30;;;11.60;1.00;;;;;;4403489;28;656756;-71
2023/02/12 11:09:03;;;;;;;8.80;4.80;;;11.80;1.00;;;;;;4384986;28;655675;-71
2023/02/12 11:11:50;;;;;;;9.17;4.87;;;10.20;1.00;;;;;;4388220;28;656076;-71
2023/02/12 11:14:39;;;;;;;11.20;4.90;;;11.10;1.00;;;;;;4409310;28;656036;-71
2023/02/12 11:17:28;;;;;;;11.53;5.63;;;8.90;1.00;;;;;;4381215;28;656301;-71
2023/02/12 11:20:24;;;;;;;11.63;5.60;;;8.30;1.00;;;;;;4391759;28;655658;-71
2023/02/12 11:23:24;;;;;;;10.37;5.37;;;9.50;1.00;;;;;;4387663;28;655215;-71
2023/02/12 11:26:24;;;;;;;12.30;5.70;;;10.50;1.00;;;;;;4385227;28;655558;-71
2023/02/12 11:29:18;;;;;;;10.40;5.60;;;11.00;1.00;;;;;;4383704;28;656296;-71
2023/02/12 11:32:08;;;;;;;12.60;5.50;;;11.10;1.00;;;;;;4398393;28;656325;-71
2023/02/12 11:35:05;;;;;;;11.82;6.43;;;12.00;1.00;;;;;;4386000;28;657050;-71
2023/02/12 11:37:53;;;;;;;11.03;6.27;;;12.00;1.00;;;;;;4377833;28;656959;-71
2023/02/12 11:40:45;;;;;;;11.97;5.87;;;13.00;1.00;;;;;;4380297;28;657119;-71
2023/02/12 11:43:36;;;;;;;11.97;6.10;;;13.30;1.00;;;;;;4388161;28;657661;-72
2023/02/12 11:46:24;;;;;;;11.03;5.53;;;12.40;1.00;;;;;;4376511;28;656465;-71
2023/02/12 11:49:17;;;;;;;14.60;5.90;;;11.60;1.00;;;;;;4387870;28;656438;-71
2023/02/12 11:52:04;;;;;;;12.57;6.30;;;8.30;1.00;;;;;;4387258;28;656755;-71
2023/02/12 11:54:53;;;;;;;11.07;6.30;;;8.40;1.00;;;;;;4384555;28;655483;-72
2023/02/12 11:57:45;;;;;;;11.50;6.67;;;9.00;1.00;;;;;;4383512;28;655280;-73
2023/02/12 12:00:35;;;;;;;14.17;7.33;;;10.30;1.00;;;;;;4379982;28;655629;-72
2023/02/12 12:03:24;;;;;;;16.73;8.17;;;8.60;1.00;;;;;;4381182;28;657654;-72
2023/02/12 12:06:23;;;;;;;14.87;7.60;;;8.80;1.00;;;;;;4385301;28;655727;-72
2023/02/12 12:09:13;;;;;;;16.80;7.50;;;9.80;1.00;;;;;;4362075;28;656463;-73
2023/02/12 12:12:12;;;;;;;20.03;8.37;;;10.20;1.00;;;;;;4388354;28;655721;-71
2023/02/12 12:21:19;;;;;;;17.10;8.93;;;9.10;1.00;;;;;;4386961;28;655656;-72
2023/02/12 12:24:10;;;;;;;24.10;10.30;;;8.30;1.00;;;;;;4383750;28;655232;-73
2023/02/12 12:27:02;;;;;;;24.43;11.70;;;8.60;1.00;;;;;;4385833;28;658732;-73
2023/02/12 12:29:51;;;;;;;20.07;10.00;;;7.70;1.00;;;;;;4386903;28;657208;-71
2023/02/12 12:32:38;;;;;;;22.10;9.55;;;8.50;1.00;;;;;;4378216;28;657665;-71
2023/02/12 12:35:29;;;;;;;26.07;10.13;;;9.20;1.00;;;;;;4384038;28;655607;-71
2023/02/12 12:38:23;;;;;;;18.77;9.40;;;8.80;1.00;;;;;;4382978;28;656763;-72
2023/02/12 12:41:14;;;;;;;18.00;8.57;;;8.60;1.00;;;;;;4383715;28;655512;-72
2023/02/12 12:44:08;;;;;;;19.47;8.60;;;9.00;1.00;;;;;;4381226;28;656153;-72
2023/02/12 12:47:11;;;;;;;17.63;6.80;;;8.80;1.00;;;;;;4367829;28;656036;-73
2023/02/12 12:50:05;;;;;;;13.00;6.57;;;8.30;1.00;;;;;;4374525;28;655849;-72
2023/02/12 12:53:00;;;;;;;16.40;6.30;;;9.20;1.00;;;;;;4385595;28;655582;-72
2023/02/12 12:55:54;;;;;;;11.57;5.87;;;9.80;1.00;;;;;;4360634;28;656611;-71
2023/02/12 12:58:51;;;;;;;10.83;5.70;;;9.60;1.00;;;;;;4387710;28;655819;-71
2023/02/12 13:01:50;;;;;;;11.82;4.88;;;8.70;1.00;;;;;;4382950;28;655431;-70
2023/02/12 13:04:49;;;;;;;9.77;5.13;;;8.90;1.00;;;;;;4378359;28;655962;-72
2023/02/12 13:07:43;;;;;;;8.73;4.53;;;10.40;1.00;;;;;;4389914;28;654250;-71
2023/02/12 13:10:33;;;;;;;9.93;4.80;;;10.20;1.00;;;;;;4369415;28;655560;-73
2023/02/12 13:13:26;;;;;;;7.60;4.63;;;9.40;1.00;;;;;;4386472;28;655910;-71
2023/02/12 13:16:16;;;;;;;12.43;5.20;;;9.20;1.00;;;;;;4385732;28;655183;-72
2023/02/12 13:19:05;;;;;;;11.97;5.20;;;9.90;1.00;;;;;;4389233;28;656928;-72
2023/02/12 13:21:55;;;;;;;11.63;5.90;;;9.70;1.00;;;;;;4386181;28;655750;-72
2023/02/12 13:24:45;;;;;;;13.97;4.47;;;9.10;1.00;;;;;;4364541;28;656265;-71
2023/02/12 13:27:34;;;;;;;14.23;6.07;;;8.90;1.00;;;;;;4373417;28;656435;-70
2023/02/12 13:30:25;;;;;;;11.67;5.57;;;8.40;1.00;;;;;;4388361;28;655579;-71
2023/02/12 13:33:15;;;;;;;13.53;6.83;;;8.20;1.00;;;;;;4381858;28;656289;-71
2023/02/12 13:36:02;;;;;;;13.57;6.70;;;9.30;1.00;;;;;;4385949;28;656983;-72
2023/02/12 13:38:52;;;;;;;13.27;6.90;;;10.20;1.00;;;;;;4406967;28;655272;-71
2023/02/12 13:41:39;;;;;;;13.23;6.37;;;11.80;1.00;;;;;;4391479;28;656542;-73
2023/02/12 13:44:31;;;;;;;13.30;7.00;;;11.00;1.00;;;;;;4388999;28;656219;-71
2023/02/12 13:47:26;;;;;;;14.67;6.97;;;9.20;1.00;;;;;;4383542;28;656464;-72
2023/02/12 13:50:21;;;;;;;15.80;6.90;;;10.30;1.00;;;;;;4389881;28;657165;-72
2023/02/12 13:53:12;;;;;;;17.33;7.50;;;11.30;1.00;;;;;;4393846;28;656654;-71
2023/02/12 13:56:06;;;;;;;17.97;8.33;;;10.20;1.00;;;;;;4388134;28;656195;-70
2023/02/12 13:58:54;;;;;;;15.50;8.40;;;9.10;1.00;;;;;;4379055;28;657370;-71
2023/02/12 14:01:42;;;;;;;13.27;6.60;;;9.60;1.00;;;;;;4388074;28;655616;-72
2023/02/12 14:04:32;;;;;;;14.03;8.13;;;11.30;1.00;;;;;;4409651;28;655463;-71
2023/02/12 14:07:19;;;;;;;17.67;7.90;;;10.10;1.00;;;;;;4392224;28;656334;-71
2023/02/12 14:10:08;;;;;;;15.85;7.20;;;10.60;1.00;;;;;;4392993;28;656221;-71
2023/02/12 14:12:56;;;;;;;17.03;7.40;;;8.90;1.00;;;;;;4406108;28;656960;-70
2023/02/12 14:15:44;;;;;;;16.67;7.87;;;10.10;1.00;;;;;;4403911;28;656039;-71
2023/02/12 14:18:33;;;;;;;15.83;7.87;;;8.90;1.00;;;;;;4386717;28;656251;-70
2023/02/12 14:21:43;;;;;;;16.40;7.27;;;7.90;1.00;;;;;;4388798;28;655949;-70
2023/02/12 14:24:51;;;;;;;15.67;7.37;;;7.80;1.00;;;;;;4368775;28;656255;-71
2023/02/12 14:27:43;;;;;;;11.50;6.13;;;7.70;1.00;;;;;;4385174;28;656164;-68
2023/02/12 14:30:32;;;;;;;13.60;5.93;;;5.90;1.00;;;;;;4370851;28;656380;-70
2023/02/12 14:33:27;;;;;;;14.10;5.83;;;5.50;1.00;;;;;;4399626;28;655476;-70
2023/02/12 14:36:19;;;;;;;14.37;6.03;;;5.30;1.00;;;;;;4391021;28;655359;-71
2023/02/12 14:39:27;;;;;;;18.17;6.13;;;5.80;1.00;;;;;;4389910;28;655713;-70